sensor_id;sensor_type;location;lat;lon;timestamp;P1;P2;P0
57798;PMS7003;43626;53.866;30.298;2023-02-28T00:02:09;25.2;20;11.4
57798;PMS7003;43626;53.866;30.298;2023-02-28T00:06:25;23.6;18.8;10.8
57798;PMS7003;43626;53.866;30.298;2023-02-28T00:11:39;23.4;17;10.2
57798;PMS7003;43626;53.866;30.298;2023-02-28T00:16:18;22.8;19.4;10.8
57798;PMS7003;43626;53.866;30.298;2023-02-28T00:21:51;22.4;18.2;10.4
57798;PMS7003;43626;53.866;30.298;2023-02-28T00:27:07;24.2;18.6;10.8
57798;PMS7003;43626;53.866;30.298;2023-02-28T00:31:37;24.8;20.6;12.4
57798;PMS7003;43626;53.866;30.298;2023-02-28T00:36:51;23.4;18.4;10.2
57798;PMS7003;43626;53.866;30.298;2023-02-28T00:41:17;25.2;21.6;12
57798;PMS7003;43626;53.866;30.298;2023-02-28T00:46:31;27;22;11.4
57798;PMS7003;43626;53.866;30.298;2023-02-28T00:51:45;30;25;13.4
57798;PMS7003;43626;53.866;30.298;2023-02-28T00:57:09;28;23.8;13.8
57798;PMS7003;43626;53.866;30.298;2023-02-28T01:01:31;30.6;25.6;13.8
57798;PMS7003;43626;53.866;30.298;2023-02-28T01:06:17;30;25.4;14.4
57798;PMS7003;43626;53.866;30.298;2023-02-28T01:11:59;30.8;24.2;14.2
57798;PMS7003;43626;53.866;30.298;2023-02-28T01:16:29;27;23.2;13.2
57798;PMS7003;43626;53.866;30.298;2023-02-28T01:22:09;32;26.2;14.2
57798;PMS7003;43626;53.866;30.298;2023-02-28T01:26:45;25.8;21.2;12
57798;PMS7003;43626;53.866;30.298;2023-02-28T01:31:29;27.4;20.8;12.4
57798;PMS7003;43626;53.866;30.298;2023-02-28T01:36:57;26;21.6;11.6
57798;PMS7003;43626;53.866;30.298;2023-02-28T01:41:43;26;21.4;11.6
57798;PMS7003;43626;53.866;30.298;2023-02-28T01:47:09;24;17.8;10.6
57798;PMS7003;43626;53.866;30.298;2023-02-28T01:51:18;19.4;13.2;7.2
57798;PMS7003;43626;53.866;30.298;2023-02-28T01:56:37;14;9.5;6
57798;PMS7003;43626;53.866;30.298;2023-02-28T02:01:57;14.4;12.2;6.2
57798;PMS7003;43626;53.866;30.298;2023-02-28T02:06:45;13.6;11.2;6
57798;PMS7003;43626;53.866;30.298;2023-02-28T02:12:11;12.4;10.2;5
57798;PMS7003;43626;53.866;30.298;2023-02-28T02:16:33;14.2;11.6;5.8
57798;PMS7003;43626;53.866;30.298;2023-02-28T02:21:25;13.6;11.6;7
57798;PMS7003;43626;53.866;30.298;2023-02-28T02:27:17;13.6;11;6.2
57798;PMS7003;43626;53.866;30.298;2023-02-28T02:31:49;15;12.4;6.8
57798;PMS7003;43626;53.866;30.298;2023-02-28T02:37:12;13.6;10.6;6.4
57798;PMS7003;43626;53.866;30.298;2023-02-28T02:41:32;15.6;11.2;6.2
57798;PMS7003;43626;53.866;30.298;2023-02-28T02:46:26;13.2;10;6
57798;PMS7003;43626;53.866;30.298;2023-02-28T02:51:20;10.2;9.6;4.8
57798;PMS7003;43626;53.866;30.298;2023-02-28T02:56:30;10.4;8.2;4.8
57798;PMS7003;43626;53.866;30.298;2023-02-28T03:02:09;11.8;8;5.3
57798;PMS7003;43626;53.866;30.298;2023-02-28T03:06:17;11.4;9;5.6
57798;PMS7003;43626;53.866;30.298;2023-02-28T03:11:31;11.2;8.4;5
57798;PMS7003;43626;53.866;30.298;2023-02-28T03:16:59;12.4;11;5.2
57798;PMS7003;43626;53.866;30.298;2023-02-28T03:21:46;11.6;11;5.2
57798;PMS7003;43626;53.866;30.298;2023-02-28T03:27:11;16.8;12.4;7.2
57798;PMS7003;43626;53.866;30.298;2023-02-28T03:31:47;13;8.6;5
57798;PMS7003;43626;53.866;30.298;2023-02-28T03:36:30;18.6;15;8.2
57798;PMS7003;43626;53.866;30.298;2023-02-28T03:42:00;11.8;10;5
57798;PMS7003;43626;53.866;30.298;2023-02-28T03:46:44;14;10.8;6
57798;PMS7003;43626;53.866;30.298;2023-02-28T03:52:07;12.2;9.4;5.4
57798;PMS7003;43626;53.866;30.298;2023-02-28T03:56:47;13;9.6;5.6
57798;PMS7003;43626;53.866;30.298;2023-02-28T04:01:19;11;9.3;5.3
57798;PMS7003;43626;53.866;30.298;2023-02-28T04:07:01;12.2;8.8;5.8
57798;PMS7003;43626;53.866;30.298;2023-02-28T04:11:45;11.2;9.8;5.2
57798;PMS7003;43626;53.866;30.298;2023-02-28T04:17:09;13.4;10.2;6
57798;PMS7003;43626;53.866;30.298;2023-02-28T04:21:46;13.2;10.6;5.6
57798;PMS7003;43626;53.866;30.298;2023-02-28T04:26:17;16.8;12.6;6.8
57798;PMS7003;43626;53.866;30.298;2023-02-28T04:32:00;14.2;11.6;6.8
57798;PMS7003;43626;53.866;30.298;2023-02-28T04:36:43;18.8;15;8
57798;PMS7003;43626;53.866;30.298;2023-02-28T04:42:09;19.6;16;8.6
57798;PMS7003;43626;53.866;30.298;2023-02-28T04:46:43;18.6;14;9.2
57798;PMS7003;43626;53.866;30.298;2023-02-28T04:51:17;17.8;14;7.6
57798;PMS7003;43626;53.866;30.298;2023-02-28T04:56:55;20.4;15.4;8.6
57798;PMS7003;43626;53.866;30.298;2023-02-28T05:01:32;18.5;16;9.8
57798;PMS7003;43626;53.866;30.298;2023-02-28T05:07:05;17.6;14.2;7.8
57798;PMS7003;43626;53.866;30.298;2023-02-28T05:11:43;17.4;13.6;7.8
57798;PMS7003;43626;53.866;30.298;2023-02-28T05:16:17;17.8;14.4;8.8
57798;PMS7003;43626;53.866;30.298;2023-02-28T05:21:49;19.8;14.8;7.4
57798;PMS7003;43626;53.866;30.298;2023-02-28T05:26:17;19.6;13.8;8
57798;PMS7003;43626;53.866;30.298;2023-02-28T05:32:08;14.2;12.2;6.8
57798;PMS7003;43626;53.866;30.298;2023-02-28T05:36:53;16.6;12.4;7.4
57798;PMS7003;43626;53.866;30.298;2023-02-28T05:41:35;17.8;14.4;8
57798;PMS7003;43626;53.866;30.298;2023-02-28T05:46:57;17;14.6;8.6
57798;PMS7003;43626;53.866;30.298;2023-02-28T05:51:49;13.6;12.4;6.4
57798;PMS7003;43626;53.866;30.298;2023-02-28T05:57:07;16.2;12.8;6.8
57798;PMS7003;43626;53.866;30.298;2023-02-28T06:01:32;13.8;10;5.8
57798;PMS7003;43626;53.866;30.298;2023-02-28T06:06:17;15;11.4;6.2
57798;PMS7003;43626;53.866;30.298;2023-02-28T06:12:05;13.4;10.8;6.2
57798;PMS7003;43626;53.866;30.298;2023-02-28T06:16:27;11.6;9.6;5.8
57798;PMS7003;43626;53.866;30.298;2023-02-28T06:22:07;14.2;9;5.6
57798;PMS7003;43626;53.866;30.298;2023-02-28T06:26:31;14;10.8;5.8
57798;PMS7003;43626;53.866;30.298;2023-02-28T06:31:17;20.6;14.4;7.8
57798;PMS7003;43626;53.866;30.298;2023-02-28T06:36:55;11.4;10.4;6.4
57798;PMS7003;43626;53.866;30.298;2023-02-28T06:41:17;12;9.4;5.6
57798;PMS7003;43626;53.866;30.298;2023-02-28T06:47:07;12.8;10;6
57798;PMS7003;43626;53.866;30.298;2023-02-28T06:52:05;12;10.8;5.8
57798;PMS7003;43626;53.866;30.298;2023-02-28T06:56:29;12.8;10.8;6.2
57798;PMS7003;43626;53.866;30.298;2023-02-28T07:01:57;14.5;12.3;6.8
57798;PMS7003;43626;53.866;30.298;2023-02-28T07:06:27;13.4;11.8;6.4
57798;PMS7003;43626;53.866;30.298;2023-02-28T07:12:07;16.4;13.4;7
57798;PMS7003;43626;53.866;30.298;2023-02-28T07:16:43;15.8;12;7
57798;PMS7003;43626;53.866;30.298;2023-02-28T07:21:17;15.2;12;6.8
57798;PMS7003;43626;53.866;30.298;2023-02-28T07:27:05;17.2;13.6;8.4
57798;PMS7003;43626;53.866;30.298;2023-02-28T07:31:17;16;13;6.8
57798;PMS7003;43626;53.866;30.298;2023-02-28T07:37:07;25.2;21.6;13
57798;PMS7003;43626;53.866;30.298;2023-02-28T07:41:43;27;20.2;11.2
57798;PMS7003;43626;53.866;30.298;2023-02-28T07:46:27;17.2;13.8;8
57798;PMS7003;43626;53.866;30.298;2023-02-28T07:51:57;20.4;16.8;8.6
57798;PMS7003;43626;53.866;30.298;2023-02-28T07:56:17;24;19.4;10.6
57798;PMS7003;43626;53.866;30.298;2023-02-28T08:02:03;22.2;18;10.8
57798;PMS7003;43626;53.866;30.298;2023-02-28T08:06:31;26;20.5;12
57798;PMS7003;43626;53.866;30.298;2023-02-28T08:11:27;20.4;17.2;9.6
57798;PMS7003;43626;53.866;30.298;2023-02-28T08:16:53;18.6;15.4;8.8
57798;PMS7003;43626;53.866;30.298;2023-02-28T08:21:29;23;15.8;8.8
57798;PMS7003;43626;53.866;30.298;2023-02-28T08:27:05;20.8;16.2;9.4
57798;PMS7003;43626;53.866;30.298;2023-02-28T08:31:43;19.2;14.6;8.2
57798;PMS7003;43626;53.866;30.298;2023-02-28T08:36:37;24.8;18.4;10.2
57798;PMS7003;43626;53.866;30.298;2023-02-28T08:41:55;25.4;19.6;10.8
57798;PMS7003;43626;53.866;30.298;2023-02-28T08:47:03;21.6;16.2;9.2
57798;PMS7003;43626;53.866;30.298;2023-02-28T08:52:05;21.6;17.8;9.4
57798;PMS7003;43626;53.866;30.298;2023-02-28T08:56:17;21.2;14.6;9
57798;PMS7003;43626;53.866;30.298;2023-02-28T09:02:05;22;16.2;9.4
57798;PMS7003;43626;53.866;30.298;2023-02-28T09:06:55;20.3;17;9.5
57798;PMS7003;43626;53.866;30.298;2023-02-28T09:11:25;23;18.8;11
57798;PMS7003;43626;53.866;30.298;2023-02-28T09:17:03;22.8;18.2;9.8
57798;PMS7003;43626;53.866;30.298;2023-02-28T09:21:18;19.6;16;9
57798;PMS7003;43626;53.866;30.298;2023-02-28T09:27:05;20.8;16;9
57798;PMS7003;43626;53.866;30.298;2023-02-28T09:31:55;19.4;15.6;8.8
57798;PMS7003;43626;53.866;30.298;2023-02-28T09:36:37;18.8;16.2;9
57798;PMS7003;43626;53.866;30.298;2023-02-28T09:42:05;18.8;15.4;8.8
57798;PMS7003;43626;53.866;30.298;2023-02-28T09:46:53;22.2;17.8;9.4
57798;PMS7003;43626;53.866;30.298;2023-02-28T09:52:04;18;15.4;9.2
57798;PMS7003;43626;53.866;30.298;2023-02-28T09:56:56;21.8;18.6;10.4
57798;PMS7003;43626;53.866;30.298;2023-02-28T10:01:18;19;16.8;9.6
57798;PMS7003;43626;53.866;30.298;2023-02-28T10:07:06;20.5;16.8;9.8
57798;PMS7003;43626;53.866;30.298;2023-02-28T10:11:17;20;15.2;9.6
57798;PMS7003;43626;53.866;30.298;2023-02-28T10:17:09;19.2;16.4;10.2
57798;PMS7003;43626;53.866;30.298;2023-02-28T10:21:56;18.4;15.8;9.4
57798;PMS7003;43626;53.866;30.298;2023-02-28T10:26:27;18;15.2;8.4
57798;PMS7003;43626;53.866;30.298;2023-02-28T10:32:08;19.6;14.6;8.6
57798;PMS7003;43626;53.866;30.298;2023-02-28T10:36:27;19.8;14.8;9.2
57798;PMS7003;43626;53.866;30.298;2023-02-28T10:42:18;17.6;15;8.8
57798;PMS7003;43626;53.866;30.298;2023-02-28T10:46:55;19.8;16.4;9.6
57798;PMS7003;43626;53.866;30.298;2023-02-28T10:51:15;18.2;15.6;9.4
57798;PMS7003;43626;53.866;30.298;2023-02-28T10:57:05;15.6;14;8.2
57798;PMS7003;43626;53.866;30.298;2023-02-28T11:01:42;18.6;13.8;8.4
57798;PMS7003;43626;53.866;30.298;2023-02-28T11:07:04;15.8;14.3;7.3
57798;PMS7003;43626;53.866;30.298;2023-02-28T11:11:53;16;13.6;7.2
57798;PMS7003;43626;53.866;30.298;2023-02-28T11:16:15;15.6;12.2;6.8
57798;PMS7003;43626;53.866;30.298;2023-02-28T11:22:03;12.6;11.6;6.8
57798;PMS7003;43626;53.866;30.298;2023-02-28T11:26:40;15.2;12.8;7.6
57798;PMS7003;43626;53.866;30.298;2023-02-28T11:32:09;13.6;10.8;6.6
57798;PMS7003;43626;53.866;30.298;2023-02-28T11:36:58;13.8;11.6;5.8
57798;PMS7003;43626;53.866;30.298;2023-02-28T11:41:29;16.2;12.4;6.6
57798;PMS7003;43626;53.866;30.298;2023-02-28T11:47:07;11.6;9.6;6.2
57798;PMS7003;43626;53.866;30.298;2023-02-28T11:51:44;13.4;11;5.8
57798;PMS7003;43626;53.866;30.298;2023-02-28T11:57:09;14;11;6.2
57798;PMS7003;43626;53.866;30.298;2023-02-28T12:02:05;13.6;11;6
57798;PMS7003;43626;53.866;30.298;2023-02-28T12:06:27;12.5;9.5;5.8
57798;PMS7003;43626;53.866;30.298;2023-02-28T12:12:07;13.4;10.8;5.6
57798;PMS7003;43626;53.866;30.298;2023-02-28T12:16:20;12;10;6
57798;PMS7003;43626;53.866;30.298;2023-02-28T12:22:12;11.2;9.8;5.4
57798;PMS7003;43626;53.866;30.298;2023-02-28T12:26:32;11.4;9;5.4
57798;PMS7003;43626;53.866;30.298;2023-02-28T12:31:17;12.6;10.4;5.6
57798;PMS7003;43626;53.866;30.298;2023-02-28T12:37:09;15;11.2;6.4
57798;PMS7003;43626;53.866;30.298;2023-02-28T12:41:45;14.8;10.8;5.8
57798;PMS7003;43626;53.866;30.298;2023-02-28T12:47:09;14.6;11.4;6.6
57798;PMS7003;43626;53.866;30.298;2023-02-28T12:52:07;12.6;9.6;5.8
57798;PMS7003;43626;53.866;30.298;2023-02-28T12:56:39;12.6;11;6
57798;PMS7003;43626;53.866;30.298;2023-02-28T13:02:18;14.6;10.8;6.2
57798;PMS7003;43626;53.866;30.298;2023-02-28T13:06:28;14;10.6;6.8
57798;PMS7003;43626;53.866;30.298;2023-02-28T13:11:51;14.3;9.8;6.3
57798;PMS7003;43626;53.866;30.298;2023-02-28T13:17:10;13.8;11.8;7
57798;PMS7003;43626;53.866;30.298;2023-02-28T13:21:28;14.2;11.6;6.6
57798;PMS7003;43626;53.866;30.298;2023-02-28T13:27:12;14.8;12.4;6.6
57798;PMS7003;43626;53.866;30.298;2023-02-28T13:32:18;14.8;12.8;6.8
57798;PMS7003;43626;53.866;30.298;2023-02-28T13:36:51;14.6;12.2;7.2
57798;PMS7003;43626;53.866;30.298;2023-02-28T13:42:24;13.2;11.4;6.6
57798;PMS7003;43626;53.866;30.298;2023-02-28T13:46:15;14;11.8;7.4
57798;PMS7003;43626;53.866;30.298;2023-02-28T13:52:10;17.4;14.4;7.2
57798;PMS7003;43626;53.866;30.298;2023-02-28T13:56:43;14.6;12;7.2
57798;PMS7003;43626;53.866;30.298;2023-02-28T14:01:55;15.2;13.2;7.4
57798;PMS7003;43626;53.866;30.298;2023-02-28T14:07:07;14.8;12.4;7
57798;PMS7003;43626;53.866;30.298;2023-02-28T14:11:53;16;13.3;7.3
57798;PMS7003;43626;53.866;30.298;2023-02-28T14:17:08;16.2;12.4;7.2
57798;PMS7003;43626;53.866;30.298;2023-02-28T14:21:19;15.8;12.8;7.8
57798;PMS7003;43626;53.866;30.298;2023-02-28T14:26:53;16.6;13.6;7.4
57798;PMS7003;43626;53.866;30.298;2023-02-28T14:32:06;17.8;14;8
57798;PMS7003;43626;53.866;30.298;2023-02-28T14:36:31;15.2;13.8;7.4
57798;PMS7003;43626;53.866;30.298;2023-02-28T14:42:22;17;15;8.8
57798;PMS7003;43626;53.866;30.298;2023-02-28T14:46:41;17.6;14.6;8.4
57798;PMS7003;43626;53.866;30.298;2023-02-28T14:51:49;20.6;15.4;8.4
57798;PMS7003;43626;53.866;30.298;2023-02-28T14:57:19;18;14.8;8.2
57798;PMS7003;43626;53.866;30.298;2023-02-28T15:01:27;16.8;13;8
57798;PMS7003;43626;53.866;30.298;2023-02-28T15:07:07;18.6;13.2;7
57798;PMS7003;43626;53.866;30.298;2023-02-28T15:11:16;15.8;12.3;7
57798;PMS7003;43626;53.866;30.298;2023-02-28T15:16:52;15.4;12.4;6.8
57798;PMS7003;43626;53.866;30.298;2023-02-28T15:22:08;13.8;11;5.8
57798;PMS7003;43626;53.866;30.298;2023-02-28T15:26:23;15;11.6;6.2
57798;PMS7003;43626;53.866;30.298;2023-02-28T15:32:07;13;12;6.8
57798;PMS7003;43626;53.866;30.298;2023-02-28T15:36:41;13.6;11.6;6.6
57798;PMS7003;43626;53.866;30.298;2023-02-28T15:41:51;13.6;11;6
57798;PMS7003;43626;53.866;30.298;2023-02-28T15:47:16;13.8;10.8;5.4
57798;PMS7003;43626;53.866;30.298;2023-02-28T15:51:16;12.6;10.2;6.2
57798;PMS7003;43626;53.866;30.298;2023-02-28T15:57:06;18;15;9.2
57798;PMS7003;43626;53.866;30.298;2023-02-28T16:01:41;20;17.6;11.2
57798;PMS7003;43626;53.866;30.298;2023-02-28T16:06:32;19.6;15.6;10.4
57798;PMS7003;43626;53.866;30.298;2023-02-28T16:12:05;17.5;13.8;7.8
57798;PMS7003;43626;53.866;30.298;2023-02-28T16:16:16;16.2;13.8;7.4
57798;PMS7003;43626;53.866;30.298;2023-02-28T16:22:07;15.8;12.2;7.8
57798;PMS7003;43626;53.866;30.298;2023-02-28T16:26:41;14;12.8;8
57798;PMS7003;43626;53.866;30.298;2023-02-28T16:31:51;15.2;12.6;8.2
57798;PMS7003;43626;53.866;30.298;2023-02-28T16:37:09;14.4;12.2;6.8
57798;PMS7003;43626;53.866;30.298;2023-02-28T16:41:16;12.6;11;6.4
57798;PMS7003;43626;53.866;30.298;2023-02-28T16:47:08;14.8;12.8;7.6
57798;PMS7003;43626;53.866;30.298;2023-02-28T16:51:41;18.6;16;8.4
57798;PMS7003;43626;53.866;30.298;2023-02-28T16:56:51;17.2;13.8;8.4
57798;PMS7003;43626;53.866;30.298;2023-02-28T17:02:08;16.6;13.4;8
57798;PMS7003;43626;53.866;30.298;2023-02-28T17:06:17;15.2;13.2;7
57798;PMS7003;43626;53.866;30.298;2023-02-28T17:12:07;13.5;11;6.3
57798;PMS7003;43626;53.866;30.298;2023-02-28T17:16:53;16.6;13.6;8.2
57798;PMS7003;43626;53.866;30.298;2023-02-28T17:22:07;18.2;15.2;9
57798;PMS7003;43626;53.866;30.298;2023-02-28T17:26:51;19.6;17;10.6
57798;PMS7003;43626;53.866;30.298;2023-02-28T17:31:15;17;13.8;9.4
57798;PMS7003;43626;53.866;30.298;2023-02-28T17:36:16;16.8;14.2;8.6
57798;PMS7003;43626;53.866;30.298;2023-02-28T17:41:54;16.2;13.6;7
57798;PMS7003;43626;53.866;30.298;2023-02-28T17:47:06;13;11.8;7
57798;PMS7003;43626;53.866;30.298;2023-02-28T17:51:53;14.4;10.8;6.6
57798;PMS7003;43626;53.866;30.298;2023-02-28T17:56:16;13.6;11.8;6.8
57798;PMS7003;43626;53.866;30.298;2023-02-28T18:01:27;12.2;10.2;6.4
57798;PMS7003;43626;53.866;30.298;2023-02-28T18:06:51;13.4;10.8;5.4
57798;PMS7003;43626;53.866;30.298;2023-02-28T18:12:05;12;9.8;5.8
57798;PMS7003;43626;53.866;30.298;2023-02-28T18:16:53;13.8;11.5;6.3
57798;PMS7003;43626;53.866;30.298;2023-02-28T18:21:27;12.8;11.2;6
57798;PMS7003;43626;53.866;30.298;2023-02-28T18:26:55;14.2;11;6.2
57798;PMS7003;43626;53.866;30.298;2023-02-28T18:31:52;13.4;11.2;5.8
57798;PMS7003;43626;53.866;30.298;2023-02-28T18:37:07;11.8;10.6;6
57798;PMS7003;43626;53.866;30.298;2023-02-28T18:41:53;12;10.2;5.4
57798;PMS7003;43626;53.866;30.298;2023-02-28T18:46:27;12.4;10.8;6.2
57798;PMS7003;43626;53.866;30.298;2023-02-28T18:51:16;13.8;10.2;5.8
57798;PMS7003;43626;53.866;30.298;2023-02-28T18:56:51;12;9.8;6
57798;PMS7003;43626;53.866;30.298;2023-02-28T19:02:05;13.2;10.2;6.2
57798;PMS7003;43626;53.866;30.298;2023-02-28T19:06:54;12.4;9.8;5.8
57798;PMS7003;43626;53.866;30.298;2023-02-28T19:11:17;16.8;12.8;6.8
57798;PMS7003;43626;53.866;30.298;2023-02-28T19:16:41;13;11.3;7.3
57798;PMS7003;43626;53.866;30.298;2023-02-28T19:21:53;12.6;10.6;6.2
57798;PMS7003;43626;53.866;30.298;2023-02-28T19:27:04;14.2;10.2;6
57798;PMS7003;43626;53.866;30.298;2023-02-28T19:31:51;12.2;10;6
57798;PMS7003;43626;53.866;30.298;2023-02-28T19:36:15;12;10.4;6
57798;PMS7003;43626;53.866;30.298;2023-02-28T19:41:27;13.4;10.6;6
57798;PMS7003;43626;53.866;30.298;2023-02-28T19:46:53;12.4;10.4;6.2
57798;PMS7003;43626;53.866;30.298;2023-02-28T19:52:07;13.8;10.6;6.2
57798;PMS7003;43626;53.866;30.298;2023-02-28T19:56:45;12.6;11.6;6.6
57798;PMS7003;43626;53.866;30.298;2023-02-28T20:01:27;17.6;14.2;9
57798;PMS7003;43626;53.866;30.298;2023-02-28T20:06:41;44;32.2;15.6
57798;PMS7003;43626;53.866;30.298;2023-02-28T20:11:54;50;35.2;17.6
57798;PMS7003;43626;53.866;30.298;2023-02-28T20:17:07;43.5;31;15.5
57798;PMS7003;43626;53.866;30.298;2023-02-28T20:21:51;25;22.4;11
57798;PMS7003;43626;53.866;30.298;2023-02-28T20:26:35;16.8;12.8;8.4
57798;PMS7003;43626;53.866;30.298;2023-02-28T20:31:29;17.4;12.2;7.2
57798;PMS7003;43626;53.866;30.298;2023-02-28T20:36:53;14;11.6;6.4
57798;PMS7003;43626;53.866;30.298;2023-02-28T20:42:07;15.4;12.6;7.4
57798;PMS7003;43626;53.866;30.298;2023-02-28T20:46:53;15.8;12.4;8
57798;PMS7003;43626;53.866;30.298;2023-02-28T20:51:15;15.4;12.2;7.6
57798;PMS7003;43626;53.866;30.298;2023-02-28T20:56:27;14.6;11.4;6.8
57798;PMS7003;43626;53.866;30.298;2023-02-28T21:01:53;17.2;13;7.4
57798;PMS7003;43626;53.866;30.298;2023-02-28T21:07:07;17.2;14.2;8.2
57798;PMS7003;43626;53.866;30.298;2023-02-28T21:11:51;48.4;34.6;17.4
57798;PMS7003;43626;53.866;30.298;2023-02-28T21:16:16;21.8;17.8;9.8
57798;PMS7003;43626;53.866;30.298;2023-02-28T21:21:42;31.6;25.6;13
57798;PMS7003;43626;53.866;30.298;2023-02-28T21:26:16;30.8;22.8;11.6
57798;PMS7003;43626;53.866;30.298;2023-02-28T21:32:07;13.6;11.8;7.4
57798;PMS7003;43626;53.866;30.298;2023-02-28T21:36:51;14.4;11.8;7.6
57798;PMS7003;43626;53.866;30.298;2023-02-28T21:41:27;10.4;9;6
57798;PMS7003;43626;53.866;30.298;2023-02-28T21:46:27;13.6;11.6;7.6
57798;PMS7003;43626;53.866;30.298;2023-02-28T21:51:16;12.4;11.4;6.6
57798;PMS7003;43626;53.866;30.298;2023-02-28T21:57:07;9.8;8.4;5.4
57798;PMS7003;43626;53.866;30.298;2023-02-28T22:01:51;11;9.8;5.6
57798;PMS7003;43626;53.866;30.298;2023-02-28T22:06:16;10.2;8.6;5.6
57798;PMS7003;43626;53.866;30.298;2023-02-28T22:11:41;14.2;11.4;7.2
57798;PMS7003;43626;53.866;30.298;2023-02-28T22:16:28;13;10.8;6.3
57798;PMS7003;43626;53.866;30.298;2023-02-28T22:22:07;11.2;9.8;6
57798;PMS7003;43626;53.866;30.298;2023-02-28T22:26:51;12;11.2;7
57798;PMS7003;43626;53.866;30.298;2023-02-28T22:31:16;11.4;10.6;6.4
57798;PMS7003;43626;53.866;30.298;2023-02-28T22:36:16;11.8;11;6.2
57798;PMS7003;43626;53.866;30.298;2023-02-28T22:41:27;13.2;11;6.8
57798;PMS7003;43626;53.866;30.298;2023-02-28T22:47:07;10.2;9;6.2
57798;PMS7003;43626;53.866;30.298;2023-02-28T22:51:53;10;7;4.8
57798;PMS7003;43626;53.866;30.298;2023-02-28T22:56:28;7.8;6.8;4.8
57798;PMS7003;43626;53.866;30.298;2023-02-28T23:01:57;7.2;6;3.6
57798;PMS7003;43626;53.866;30.298;2023-02-28T23:06:51;8.4;6.4;4.2
57798;PMS7003;43626;53.866;30.298;2023-02-28T23:12:07;6.6;6;4
57798;PMS7003;43626;53.866;30.298;2023-02-28T23:16:44;7.2;6.4;4.4
57798;PMS7003;43626;53.866;30.298;2023-02-28T23:21:27;6.8;6.3;4.3
57798;PMS7003;43626;53.866;30.298;2023-02-28T23:26:27;6.8;6.2;4
57798;PMS7003;43626;53.866;30.298;2023-02-28T23:31:25;9.2;8.2;5.2
57798;PMS7003;43626;53.866;30.298;2023-02-28T23:36:49;28.8;21;10.6
57798;PMS7003;43626;53.866;30.298;2023-02-28T23:41:41;57.8;41.4;20.8
57798;PMS7003;43626;53.866;30.298;2023-02-28T23:46:13;43;33;16.4
57798;PMS7003;43626;53.866;30.298;2023-02-28T23:51:39;45.8;33.2;15.2
57798;PMS7003;43626;53.866;30.298;2023-02-28T23:56:14;28.4;21.8;10.4
